createdAt,value
2023-02-24T00:01:54.549Z,23.58
2023-02-24T00:04:21.884Z,23.95
2023-02-24T00:06:49.424Z,24.70
2023-02-24T00:09:20.333Z,20.05
2023-02-24T00:11:59.266Z,27.40
2023-02-24T00:14:29.283Z,28.90
2023-02-24T00:16:58.611Z,21.42
2023-02-24T00:19:29.083Z,24.80
2023-02-24T00:21:56.545Z,26.42
2023-02-24T00:24:24.085Z,24.13
2023-02-24T00:27:00.157Z,22.55
2023-02-24T00:29:29.144Z,23.40
2023-02-24T00:32:02.583Z,29.05
2023-02-24T00:34:32.139Z,14.95
2023-02-24T00:36:59.702Z,23.90
2023-02-24T00:39:32.926Z,24.83
2023-02-24T00:42:07.013Z,23.20
2023-02-24T00:44:41.271Z,23.93
2023-02-24T00:47:10.615Z,25.33
2023-02-24T00:49:43.202Z,24.02
2023-02-24T00:52:17.496Z,27.55
2023-02-24T00:54:46.553Z,24.90
2023-02-24T00:57:17.705Z,26.98
2023-02-24T00:59:48.379Z,25.98
2023-02-24T01:02:16.204Z,23.17
2023-02-24T01:04:45.639Z,24.75
2023-02-24T01:07:14.664Z,26.35
2023-02-24T01:09:44.301Z,27.40
2023-02-24T01:12:22.111Z,27.20
2023-02-24T01:14:53.152Z,27.95
2023-02-24T01:17:21.846Z,27.17
2023-02-24T01:19:50.704Z,35.67
2023-02-24T01:22:20.711Z,25.20
2023-02-24T01:24:48.986Z,30.63
2023-02-24T01:27:19.174Z,26.70
2023-02-24T01:29:47.792Z,25.55
2023-02-24T01:32:21.056Z,29.80
2023-02-24T01:34:52.305Z,24.67
2023-02-24T01:37:20.370Z,28.15
2023-02-24T01:39:48.365Z,31.23
2023-02-24T01:42:21.789Z,33.53
2023-02-24T01:44:49.134Z,23.67
2023-02-24T01:47:20.790Z,23.25
2023-02-24T01:49:52.725Z,32.50
2023-02-24T01:52:27.081Z,27.30
2023-02-24T01:54:58.073Z,28.20
2023-02-24T01:57:31.282Z,34.42
2023-02-24T02:00:23.546Z,19.92
2023-02-24T02:02:53.014Z,26.10
2023-02-24T02:05:21.300Z,28.92
2023-02-24T02:07:50.271Z,25.88
2023-02-24T02:10:18.653Z,58.33
2023-02-24T02:12:46.356Z,115.93
2023-02-24T02:15:16.929Z,34.20
2023-02-24T02:17:44.245Z,51.28
2023-02-24T02:20:22.834Z,47.00
2023-02-24T02:23:08.439Z,36.95
2023-02-24T02:25:57.415Z,39.83
2023-02-24T02:28:54.114Z,33.13
2023-02-24T02:31:56.768Z,35.58
2023-02-24T02:34:24.014Z,24.63
2023-02-24T02:37:09.642Z,24.38
2023-02-24T02:39:39.636Z,22.80
2023-02-24T02:42:15.391Z,25.08
2023-02-24T02:44:56.130Z,21.33
2023-02-24T02:47:55.138Z,20.45
2023-02-24T02:50:28.658Z,25.70
2023-02-24T02:53:03.233Z,16.73
2023-02-24T02:55:42.240Z,22.48
2023-02-24T02:58:15.564Z,21.60
2023-02-24T03:00:58.746Z,21.93
2023-02-24T03:03:28.091Z,25.50
2023-02-24T03:06:19.409Z,22.27
2023-02-24T03:09:30.558Z,23.58
2023-02-24T03:12:04.181Z,23.27
2023-02-24T03:14:37.630Z,22.30
2023-02-24T03:17:16.331Z,23.83
2023-02-24T03:19:46.329Z,20.98
2023-02-24T03:22:20.931Z,21.70
2023-02-24T03:24:48.870Z,19.85
2023-02-24T03:27:53.055Z,22.58
2023-02-24T03:30:27.710Z,20.30
2023-02-24T03:33:24.621Z,26.33
2023-02-24T03:35:52.713Z,20.70
2023-02-24T03:38:23.907Z,21.00
2023-02-24T03:40:52.478Z,19.08
2023-02-24T03:43:31.838Z,19.80
2023-02-24T03:46:03.807Z,21.92
2023-02-24T03:48:34.899Z,22.55
2023-02-24T03:51:04.213Z,19.17
2023-02-24T03:53:55.298Z,21.15
2023-02-24T03:56:41.120Z,23.50
2023-02-24T03:59:41.811Z,19.35
2023-02-24T04:02:21.293Z,19.48
2023-02-24T04:05:11.065Z,27.63
2023-02-24T04:08:05.405Z,19.70
2023-02-24T04:10:52.787Z,21.77
2023-02-24T04:13:36.974Z,20.23
2023-02-24T04:16:18.720Z,25.48
2023-02-24T04:18:50.457Z,23.77
2023-02-24T04:21:21.140Z,26.80
2023-02-24T04:23:48.848Z,22.90
2023-02-24T04:26:17.675Z,24.42
2023-02-24T04:28:48.593Z,19.60
2023-02-24T04:31:19.244Z,22.73
2023-02-24T04:33:50.547Z,21.42
2023-02-24T04:36:22.274Z,20.00
2023-02-24T04:38:50.193Z,24.00
2023-02-24T04:41:21.525Z,22.48
2023-02-24T04:43:51.430Z,24.13
2023-02-24T04:46:19.805Z,19.67
2023-02-24T04:48:47.179Z,23.60
2023-02-24T04:51:14.616Z,29.70
2023-02-24T04:53:42.064Z,20.95
2023-02-24T04:56:09.525Z,23.75
2023-02-24T04:58:38.632Z,18.95
2023-02-24T05:01:11.424Z,26.13
2023-02-24T05:03:42.424Z,28.63
2023-02-24T05:06:17.899Z,23.15
2023-02-24T05:08:45.348Z,20.35
2023-02-24T05:11:17.102Z,21.88
2023-02-24T05:13:48.232Z,23.33
2023-02-24T05:16:18.414Z,24.90
2023-02-24T05:18:45.809Z,21.10
2023-02-24T05:21:34.408Z,23.48
2023-02-24T05:24:06.942Z,26.15
2023-02-24T05:26:41.900Z,18.50
2023-02-24T05:29:11.045Z,21.23
2023-02-24T05:31:38.582Z,22.13
2023-02-24T05:34:08.238Z,21.25
2023-02-24T05:36:40.653Z,22.90
2023-02-24T05:39:12.535Z,20.67
2023-02-24T05:41:42.414Z,20.00
2023-02-24T05:44:22.705Z,22.67
2023-02-24T05:46:56.778Z,21.05
2023-02-24T05:49:29.368Z,20.35
2023-02-24T05:52:00.938Z,21.88
2023-02-24T05:54:37.711Z,20.02
2023-02-24T05:57:14.099Z,22.73
2023-02-24T05:59:42.483Z,19.80
2023-02-24T06:02:13.098Z,18.98
2023-02-24T06:04:51.502Z,22.25
2023-02-24T06:07:24.779Z,31.45
2023-02-24T06:09:56.667Z,26.88
2023-02-24T06:12:29.513Z,20.35
2023-02-24T06:14:58.321Z,20.70
2023-02-24T06:17:26.293Z,19.95
2023-02-24T06:19:54.185Z,20.33
2023-02-24T06:22:24.906Z,19.77
2023-02-24T06:24:54.616Z,18.55
2023-02-24T06:27:25.339Z,22.85
2023-02-24T06:29:54.866Z,24.10
2023-02-24T06:32:25.120Z,19.75
2023-02-24T06:34:54.111Z,21.20
2023-02-24T06:37:23.204Z,19.98
2023-02-24T06:39:50.988Z,19.33
2023-02-24T06:42:18.599Z,18.60
2023-02-24T06:44:47.344Z,23.10
2023-02-24T06:47:18.087Z,20.10
2023-02-24T06:49:45.559Z,24.60
2023-02-24T06:52:18.605Z,20.88
2023-02-24T06:54:52.415Z,21.13
2023-02-24T06:57:20.798Z,20.00
2023-02-24T06:59:48.985Z,21.23
2023-02-24T07:02:17.726Z,20.17
2023-02-24T07:04:45.171Z,25.88
2023-02-24T07:07:14.565Z,26.55
2023-02-24T07:09:42.897Z,20.40
2023-02-24T07:12:12.601Z,20.02
2023-02-24T07:14:40.682Z,21.60
2023-02-24T07:17:08.878Z,21.30
2023-02-24T07:19:36.925Z,24.83
2023-02-24T07:22:04.266Z,24.30
2023-02-24T07:24:36.424Z,26.33
2023-02-24T07:27:08.139Z,25.90
2023-02-24T07:29:36.372Z,27.17
2023-02-24T07:32:06.822Z,25.85
2023-02-24T07:34:38.706Z,25.02
2023-02-24T07:37:08.527Z,24.38
2023-02-24T07:39:38.038Z,22.52
2023-02-24T07:42:08.263Z,28.17
2023-02-24T07:44:45.790Z,24.92
2023-02-24T07:47:13.016Z,25.40
2023-02-24T07:49:41.140Z,21.27
2023-02-24T07:52:08.793Z,22.02
2023-02-24T07:54:37.077Z,20.95
2023-02-24T07:57:06.043Z,27.05
2023-02-24T07:59:37.834Z,25.15
2023-02-24T08:02:07.757Z,20.25
2023-02-24T08:04:39.796Z,20.58
2023-02-24T08:07:14.370Z,24.90
2023-02-24T08:09:45.145Z,24.48
2023-02-24T08:12:18.224Z,25.55
2023-02-24T08:14:51.173Z,33.17
2023-02-24T08:17:26.524Z,21.60
2023-02-24T08:20:16.427Z,24.83
2023-02-24T08:22:47.277Z,31.13
2023-02-24T08:25:19.620Z,29.40
2023-02-24T08:28:06.753Z,33.20
2023-02-24T08:30:40.449Z,29.50
2023-02-24T08:33:10.886Z,26.58
2023-02-24T08:35:45.130Z,30.98
2023-02-24T08:40:51.419Z,30.33
2023-02-24T08:43:37.490Z,33.25
2023-02-24T08:46:19.587Z,27.73
2023-02-24T08:48:57.228Z,32.90
2023-02-24T08:51:31.387Z,29.17
2023-02-24T08:54:04.491Z,30.33
2023-02-24T08:56:35.051Z,29.90
2023-02-24T08:59:05.819Z,25.98
2023-02-24T09:01:38.685Z,27.08
2023-02-24T09:04:19.828Z,27.08
2023-02-24T09:06:52.551Z,24.90
2023-02-24T09:09:23.024Z,25.90
2023-02-24T09:12:02.048Z,26.20
2023-02-24T09:14:38.608Z,24.55
2023-02-24T09:17:11.359Z,22.08
2023-02-24T09:19:47.266Z,23.65
2023-02-24T09:22:31.288Z,25.23
2023-02-24T09:25:17.935Z,25.17
2023-02-24T09:27:52.558Z,23.17
2023-02-24T09:30:37.764Z,26.27
2023-02-24T09:33:17.857Z,23.50
2023-02-24T09:36:10.149Z,22.02
2023-02-24T09:39:03.148Z,21.00
2023-02-24T09:42:07.893Z,22.60
2023-02-24T09:44:44.407Z,24.63
2023-02-24T09:47:40.143Z,20.15
2023-02-24T09:50:14.244Z,20.70
2023-02-24T09:52:41.922Z,20.65
2023-02-24T09:55:26.791Z,24.92
2023-02-24T09:58:17.777Z,19.15
2023-02-24T10:01:00.838Z,27.48
2023-02-24T10:03:43.466Z,18.45
2023-02-24T10:06:35.315Z,19.70
2023-02-24T10:09:24.584Z,20.52
2023-02-24T10:12:06.867Z,22.40
2023-02-24T10:15:19.078Z,24.02
2023-02-24T10:17:56.364Z,19.38
2023-02-24T10:20:44.702Z,32.63
2023-02-24T10:23:11.901Z,21.88
2023-02-24T10:25:55.315Z,24.90
2023-02-24T10:28:37.467Z,19.10
2023-02-24T10:31:27.186Z,20.80
2023-02-24T10:34:00.983Z,19.88
2023-02-24T10:36:35.637Z,19.20
2023-02-24T10:39:17.125Z,15.82
2023-02-24T10:42:15.861Z,22.90
2023-02-24T10:45:01.979Z,19.45
2023-02-24T10:47:31.874Z,23.17
2023-02-24T10:50:01.703Z,26.40
2023-02-24T10:53:06.483Z,20.15
2023-02-24T10:55:45.904Z,19.30
2023-02-24T10:59:01.757Z,21.73
2023-02-24T11:04:33.285Z,23.58
2023-02-24T11:07:12.966Z,20.00
2023-02-24T11:09:53.025Z,17.33
2023-02-24T11:12:43.969Z,18.90
2023-02-24T11:15:53.756Z,22.30
2023-02-24T11:18:26.702Z,22.23
2023-02-24T11:21:01.212Z,26.60
2023-02-24T11:26:07.553Z,17.88
2023-02-24T11:28:44.805Z,18.20
2023-02-24T11:31:22.542Z,16.02
2023-02-24T11:34:06.211Z,18.58
2023-02-24T11:36:54.593Z,20.00
2023-02-24T11:39:40.666Z,20.10
2023-02-24T11:42:16.945Z,18.02
2023-02-24T11:44:47.829Z,19.98
2023-02-24T11:47:20.239Z,16.02
2023-02-24T11:50:05.008Z,16.25
2023-02-24T11:52:39.090Z,16.13
2023-02-24T11:55:27.286Z,13.50
2023-02-24T11:57:59.283Z,13.43
2023-02-24T12:00:30.905Z,14.00
2023-02-24T12:03:18.410Z,12.73
2023-02-24T12:05:52.783Z,15.40
2023-02-24T12:08:29.240Z,20.48
2023-02-24T12:11:18.507Z,22.55
2023-02-24T12:14:27.581Z,19.10
2023-02-24T12:17:03.457Z,13.10
2023-02-24T12:19:37.329Z,17.85
2023-02-24T12:22:15.653Z,23.02
2023-02-24T12:24:49.936Z,14.40
2023-02-24T12:27:43.498Z,21.38
2023-02-24T12:30:39.163Z,16.23
2023-02-24T12:33:35.678Z,12.43
2023-02-24T12:36:30.910Z,13.52
2023-02-24T12:39:42.933Z,12.73
2023-02-24T12:42:43.493Z,13.55
2023-02-24T12:45:23.816Z,18.52
2023-02-24T12:47:57.309Z,16.67
2023-02-24T12:50:30.993Z,13.10
2023-02-24T12:53:13.173Z,11.23
2023-02-24T12:55:56.996Z,19.38
2023-02-24T12:58:34.827Z,19.13
2023-02-24T13:01:13.738Z,18.70
2023-02-24T13:04:11.006Z,16.02
2023-02-24T13:07:00.048Z,12.15
2023-02-24T13:10:01.865Z,21.88
2023-02-24T13:13:06.689Z,17.83
2023-02-24T13:15:34.963Z,19.92
2023-02-24T13:18:02.534Z,14.05
2023-02-24T13:20:38.182Z,16.52
2023-02-24T13:23:21.169Z,20.38
2023-02-24T13:25:53.222Z,21.52
2023-02-24T13:28:31.620Z,17.88
2023-02-24T13:31:10.162Z,16.45
2023-02-24T13:33:45.406Z,15.90
2023-02-24T13:36:21.580Z,19.48
2023-02-24T13:38:51.045Z,16.23
2023-02-24T13:41:28.830Z,19.42
2023-02-24T13:43:58.501Z,21.58
2023-02-24T13:46:29.910Z,18.77
2023-02-24T13:49:42.435Z,21.15
2023-02-24T13:52:40.653Z,16.08
2023-02-24T13:55:14.219Z,22.00
2023-02-24T13:57:41.505Z,21.63
2023-02-24T14:00:40.721Z,21.13
2023-02-24T14:03:18.334Z,18.70
2023-02-24T14:05:45.816Z,19.10
2023-02-24T14:08:34.270Z,19.33
2023-02-24T14:11:04.030Z,24.02
2023-02-24T14:13:34.370Z,20.88
2023-02-24T14:16:06.480Z,22.75
2023-02-24T14:18:33.812Z,19.42
2023-02-24T14:21:01.042Z,15.57
2023-02-24T14:23:33.960Z,17.58
2023-02-24T14:26:05.443Z,18.90
2023-02-24T14:28:39.780Z,22.10
2023-02-24T14:33:39.658Z,15.43
2023-02-24T14:36:18.985Z,20.98
2023-02-24T14:38:46.406Z,16.40
2023-02-24T14:41:28.026Z,17.38
2023-02-24T14:43:56.569Z,22.02
2023-02-24T14:46:24.452Z,24.92
2023-02-24T14:48:56.369Z,35.83
2023-02-24T14:51:33.951Z,16.75
2023-02-24T14:54:06.414Z,20.80
2023-02-24T14:56:35.710Z,18.10
2023-02-24T14:59:12.602Z,18.40
2023-02-24T15:01:43.417Z,20.50
2023-02-24T15:04:28.989Z,17.13
2023-02-24T15:06:56.560Z,11.45
2023-02-24T15:09:29.230Z,16.63
2023-02-24T15:11:56.721Z,18.23
2023-02-24T15:14:31.489Z,13.57
2023-02-24T15:17:03.847Z,12.65
2023-02-24T15:19:38.866Z,17.50
2023-02-24T15:22:22.810Z,18.65
2023-02-24T15:24:51.833Z,16.40
2023-02-24T15:27:20.750Z,13.32
2023-02-24T15:30:34.330Z,13.80
2023-02-24T15:33:04.452Z,17.55
2023-02-24T15:35:33.681Z,17.13
2023-02-24T15:38:02.365Z,21.23
2023-02-24T15:40:30.230Z,18.77
2023-02-24T15:42:58.741Z,24.27
2023-02-24T15:45:34.896Z,18.00
2023-02-24T15:48:17.573Z,24.40
2023-02-24T15:50:44.869Z,16.50
2023-02-24T15:53:13.201Z,13.10
2023-02-24T15:55:43.970Z,15.38
2023-02-24T15:58:17.425Z,18.98
2023-02-24T16:00:45.744Z,17.30
2023-02-24T16:03:13.270Z,23.20
2023-02-24T16:05:40.585Z,15.70
2023-02-24T16:08:13.089Z,21.95
2023-02-24T16:10:40.969Z,23.65
2023-02-24T16:13:17.345Z,14.23
2023-02-24T16:15:45.674Z,19.63
2023-02-24T16:18:22.719Z,22.20
2023-02-24T16:20:54.812Z,23.65
2023-02-24T16:23:23.577Z,19.38
2023-02-24T16:25:55.493Z,20.67
2023-02-24T16:28:23.453Z,21.70
2023-02-24T16:30:51.950Z,25.20
2023-02-24T16:33:23.927Z,36.38
2023-02-24T16:35:54.882Z,28.10
2023-02-24T16:38:26.787Z,30.27
2023-02-24T16:40:55.440Z,24.63
2023-02-24T16:43:22.747Z,29.00
2023-02-24T16:45:53.414Z,21.40
2023-02-24T16:48:24.443Z,23.77
2023-02-24T16:50:51.871Z,23.85
2023-02-24T16:53:22.659Z,28.38
2023-02-24T16:55:51.080Z,44.50
2023-02-24T16:58:19.346Z,41.20
2023-02-24T17:00:50.016Z,74.20
2023-02-24T17:03:19.760Z,81.65
2023-02-24T17:05:47.034Z,67.38
2023-02-24T17:08:17.409Z,49.20
2023-02-24T17:10:45.362Z,46.85
2023-02-24T17:13:18.589Z,43.08
2023-02-24T17:15:46.814Z,37.35
2023-02-24T17:18:14.056Z,37.00
2023-02-24T17:20:42.589Z,34.08
2023-02-24T17:23:11.488Z,30.73
2023-02-24T17:25:39.586Z,40.95
2023-02-24T17:28:07.873Z,30.38
2023-02-24T17:30:36.282Z,28.20
2023-02-24T17:33:03.717Z,29.40
2023-02-24T17:35:31.000Z,39.00
2023-02-24T17:37:58.423Z,35.88
2023-02-24T17:40:25.791Z,35.35
2023-02-24T17:42:53.124Z,41.08
2023-02-24T17:45:20.533Z,42.00
2023-02-24T17:47:47.825Z,41.75
2023-02-24T17:50:15.101Z,44.70
2023-02-24T17:52:42.546Z,40.40
2023-02-24T17:55:10.424Z,45.28
2023-02-24T17:57:39.766Z,52.67
2023-02-24T18:00:09.360Z,51.15
2023-02-24T18:02:40.336Z,42.13
2023-02-24T18:05:08.611Z,43.78
2023-02-24T18:07:36.863Z,34.92
2023-02-24T18:10:05.335Z,43.78
2023-02-24T18:12:32.714Z,44.33
2023-02-24T18:15:08.244Z,40.67
2023-02-24T18:17:36.718Z,42.95
2023-02-24T18:20:05.483Z,47.60
2023-02-24T18:22:32.754Z,35.30
2023-02-24T18:25:01.131Z,39.00
2023-02-24T18:27:28.878Z,37.13
2023-02-24T18:29:56.171Z,48.88
2023-02-24T18:32:23.569Z,38.88
2023-02-24T18:34:50.892Z,65.90
2023-02-24T18:37:18.410Z,74.88
2023-02-24T18:39:45.738Z,51.53
2023-02-24T18:42:13.016Z,43.53
2023-02-24T18:44:40.259Z,37.03
2023-02-24T18:47:09.734Z,33.92
2023-02-24T18:49:37.849Z,39.58
2023-02-24T18:52:07.655Z,26.80
2023-02-24T18:54:35.247Z,32.85
2023-02-24T18:57:02.850Z,28.98
2023-02-24T18:59:30.491Z,39.03
2023-02-24T19:01:58.065Z,40.60
2023-02-24T19:04:25.633Z,35.40
2023-02-24T19:06:52.969Z,39.67
2023-02-24T19:09:22.784Z,38.60
2023-02-24T19:11:54.305Z,40.22
2023-02-24T19:14:22.614Z,38.13
2023-02-24T19:16:50.179Z,35.72
2023-02-24T19:19:17.658Z,34.80
2023-02-24T19:21:45.689Z,30.38
2023-02-24T19:24:15.156Z,35.83
2023-02-24T19:26:44.417Z,43.85
2023-02-24T19:29:12.110Z,33.17
2023-02-24T19:31:39.699Z,40.38
2023-02-24T19:34:10.870Z,41.05
2023-02-24T19:36:38.201Z,47.22
2023-02-24T19:39:09.838Z,40.38
2023-02-24T19:41:37.902Z,35.42
2023-02-24T19:44:05.290Z,56.90
2023-02-24T19:46:34.295Z,40.22
2023-02-24T19:49:01.663Z,45.40
2023-02-24T19:51:29.483Z,44.47
2023-02-24T19:53:59.632Z,37.78
2023-02-24T19:56:29.362Z,39.47
2023-02-24T19:58:58.214Z,46.30
2023-02-24T20:01:28.103Z,48.85
2023-02-24T20:03:57.719Z,49.05
2023-02-24T20:06:31.789Z,51.50
2023-02-24T20:11:33.401Z,37.65
2023-02-24T20:14:00.582Z,39.03
2023-02-24T20:16:32.620Z,52.75
2023-02-24T20:19:00.303Z,53.55
2023-02-24T20:21:28.208Z,50.50
2023-02-24T20:23:55.486Z,54.63
2023-02-24T20:26:23.389Z,47.28
2023-02-24T20:28:50.772Z,48.03
2023-02-24T20:31:19.599Z,47.17
2023-02-24T20:33:49.134Z,50.30
2023-02-24T20:36:22.253Z,45.28
2023-02-24T20:38:50.362Z,46.72
2023-02-24T20:41:19.362Z,48.38
2023-02-24T20:43:47.097Z,46.17
2023-02-24T20:46:17.532Z,47.63
2023-02-24T20:48:45.452Z,47.40
2023-02-24T20:51:12.872Z,37.40
2023-02-24T20:53:54.677Z,48.40
2023-02-24T20:56:25.904Z,52.53
2023-02-24T20:59:02.367Z,42.88
2023-02-24T21:01:31.824Z,46.58
2023-02-24T21:03:59.196Z,41.92
2023-02-24T21:06:27.432Z,51.22
2023-02-24T21:08:54.996Z,54.80
2023-02-24T21:11:22.651Z,43.90
2023-02-24T21:13:51.215Z,53.85
2023-02-24T21:16:20.150Z,52.67
2023-02-24T21:18:49.318Z,52.70
2023-02-24T21:21:17.633Z,40.85
2023-02-24T21:23:44.955Z,46.50
2023-02-24T21:26:13.129Z,44.22
2023-02-24T21:28:41.009Z,40.20
2023-02-24T21:31:16.355Z,41.42
2023-02-24T21:33:44.107Z,48.95
2023-02-24T21:36:14.555Z,49.33
2023-02-24T21:38:43.182Z,43.05
2023-02-24T21:41:14.908Z,48.83
2023-02-24T21:43:44.398Z,39.83
2023-02-24T21:46:13.823Z,44.75
2023-02-24T21:48:42.027Z,44.15
2023-02-24T21:51:12.176Z,41.28
2023-02-24T21:53:43.582Z,51.90
2023-02-24T21:56:18.905Z,45.22
2023-02-24T21:58:48.550Z,46.45
2023-02-24T22:01:18.308Z,40.45
2023-02-24T22:03:45.669Z,47.55
2023-02-24T22:06:15.070Z,40.88
2023-02-24T22:08:45.783Z,45.65
2023-02-24T22:11:15.833Z,33.28
2023-02-24T22:13:44.652Z,49.13
2023-02-24T22:16:21.269Z,46.65
2023-02-24T22:18:50.366Z,39.40
2023-02-24T22:21:20.351Z,46.92
2023-02-24T22:23:51.751Z,41.55
2023-02-24T22:26:21.170Z,36.65
2023-02-24T22:28:49.418Z,45.55
2023-02-24T22:31:19.374Z,36.55
2023-02-24T22:33:46.921Z,39.22
2023-02-24T22:36:16.633Z,33.67
2023-02-24T22:38:45.717Z,33.55
2023-02-24T22:41:18.543Z,39.15
2023-02-24T22:43:46.476Z,40.50
2023-02-24T22:46:21.450Z,37.20
2023-02-24T22:48:50.490Z,44.15
2023-02-24T22:51:18.855Z,42.50
2023-02-24T22:53:49.023Z,50.08
2023-02-24T22:56:22.013Z,35.70
2023-02-24T22:58:49.792Z,38.08
2023-02-24T23:01:26.720Z,39.30
2023-02-24T23:03:54.934Z,37.10
2023-02-24T23:06:26.212Z,33.03
2023-02-24T23:08:54.453Z,34.17
2023-02-24T23:11:33.895Z,38.35
2023-02-24T23:14:03.894Z,29.85
2023-02-24T23:16:34.451Z,29.90
2023-02-24T23:19:04.988Z,31.33
2023-02-24T23:21:38.281Z,39.17
2023-02-24T23:24:07.509Z,30.23
2023-02-24T23:26:51.438Z,36.60
2023-02-24T23:29:19.011Z,31.20
2023-02-24T23:31:46.601Z,37.50
2023-02-24T23:34:14.514Z,30.48
2023-02-24T23:36:44.060Z,39.67
2023-02-24T23:39:14.088Z,37.92
2023-02-24T23:41:42.062Z,34.72
2023-02-24T23:44:09.498Z,29.67
2023-02-24T23:46:37.247Z,29.95
2023-02-24T23:49:05.204Z,27.92
2023-02-24T23:51:46.954Z,29.27
2023-02-24T23:54:15.758Z,29.35
2023-02-24T23:56:43.009Z,39.20
2023-02-24T23:59:12.629Z,30.88
